createdAt,value
2019-03-28T00:00:31.821Z,43.63
2019-03-28T00:02:39.592Z,43.20
2019-03-28T00:04:47.311Z,43.87
2019-03-28T00:06:55.222Z,44.15
2019-03-28T00:09:07.687Z,49.27
2019-03-28T00:11:15.409Z,48.52
2019-03-28T00:13:22.984Z,47.67
2019-03-28T00:15:31.102Z,48.33
2019-03-28T00:17:38.791Z,43.05
2019-03-28T00:19:46.435Z,41.42
2019-03-28T00:21:54.128Z,44.13
2019-03-28T00:24:03.447Z,37.70
2019-03-28T00:26:11.250Z,40.75
2019-03-28T00:28:18.954Z,42.38
2019-03-28T00:30:26.701Z,43.35
2019-03-28T00:32:34.375Z,44.65
2019-03-28T00:34:42.145Z,43.90
2019-03-28T00:36:49.821Z,45.00
2019-03-28T00:38:57.590Z,41.02
2019-03-28T00:41:06.736Z,38.78
2019-03-28T00:43:14.411Z,39.92
2019-03-28T00:45:22.077Z,40.10
2019-03-28T00:47:29.794Z,38.65
2019-03-28T00:49:37.470Z,40.50
2019-03-28T00:51:45.156Z,39.58
2019-03-28T00:53:53.023Z,38.75
2019-03-28T00:56:00.777Z,37.45
2019-03-28T00:58:09.077Z,34.80
2019-03-28T01:00:17.879Z,35.85
2019-03-28T01:02:25.617Z,34.63
2019-03-28T01:04:33.293Z,34.90
2019-03-28T01:06:40.937Z,39.25
2019-03-28T01:08:48.701Z,38.63
2019-03-28T01:10:56.382Z,42.50
2019-03-28T01:13:04.170Z,40.98
2019-03-28T01:15:12.325Z,39.80
2019-03-28T01:17:20.076Z,39.53
2019-03-28T01:19:27.813Z,41.05
2019-03-28T01:21:35.490Z,39.13
2019-03-28T01:23:43.263Z,39.58
2019-03-28T01:25:50.940Z,36.85
2019-03-28T01:27:58.635Z,41.45
2019-03-28T01:30:10.161Z,41.50
2019-03-28T01:32:17.837Z,40.40
2019-03-28T01:34:25.515Z,41.73
2019-03-28T01:36:33.183Z,43.98
2019-03-28T01:38:40.961Z,54.65
2019-03-28T01:40:48.733Z,54.18
2019-03-28T01:42:56.405Z,49.35
2019-03-28T01:45:06.711Z,44.73
2019-03-28T01:47:14.579Z,45.60
2019-03-28T01:49:22.235Z,48.45
2019-03-28T01:51:29.943Z,49.63
2019-03-28T01:53:38.236Z,47.50
2019-03-28T01:55:46.253Z,51.35
2019-03-28T01:57:54.019Z,48.83
2019-03-28T02:00:02.622Z,45.10
2019-03-28T02:02:10.635Z,43.23
2019-03-28T02:04:18.382Z,43.40
2019-03-28T02:06:26.323Z,43.80
2019-03-28T02:08:34.202Z,42.38
2019-03-28T02:10:41.953Z,37.13
2019-03-28T02:12:49.758Z,32.93
2019-03-28T02:14:57.416Z,33.20
2019-03-28T02:17:05.191Z,33.35
2019-03-28T02:19:12.938Z,19.60
2019-03-28T02:21:20.684Z,31.07
2019-03-28T02:23:28.513Z,31.30
2019-03-28T02:25:36.186Z,34.80
2019-03-28T02:27:43.866Z,34.08
2019-03-28T02:29:51.786Z,33.08
2019-03-28T02:31:59.463Z,28.07
2019-03-28T02:34:07.134Z,31.65
2019-03-28T02:36:14.918Z,30.30
2019-03-28T02:38:22.680Z,28.15
2019-03-28T02:40:30.394Z,32.88
2019-03-28T02:42:38.297Z,35.78
2019-03-28T02:44:46.015Z,32.60
2019-03-28T02:46:53.692Z,30.00
2019-03-28T02:49:01.366Z,30.50
2019-03-28T02:51:09.062Z,27.87
2019-03-28T02:53:16.809Z,26.95
2019-03-28T02:55:24.519Z,27.30
2019-03-28T02:57:40.866Z,34.70
2019-03-28T02:59:41.635Z,35.65
2019-03-28T03:01:51.479Z,37.50
2019-03-28T03:03:59.315Z,23.83
2019-03-28T03:06:07.128Z,35.60
2019-03-28T03:08:14.870Z,36.73
2019-03-28T03:10:22.702Z,41.60
2019-03-28T03:12:30.563Z,39.25
2019-03-28T03:14:38.468Z,41.33
2019-03-28T03:16:46.282Z,42.20
2019-03-28T03:18:54.026Z,43.02
2019-03-28T03:21:01.802Z,40.75
2019-03-28T03:23:09.479Z,43.08
2019-03-28T03:25:17.302Z,43.23
2019-03-28T03:27:25.114Z,47.78
2019-03-28T03:29:32.786Z,49.93
2019-03-28T03:31:40.442Z,34.92
2019-03-28T03:33:48.121Z,49.80
2019-03-28T03:35:55.837Z,47.43
2019-03-28T03:38:03.512Z,42.05
2019-03-28T03:40:13.082Z,41.90
2019-03-28T03:42:20.833Z,45.12
2019-03-28T03:44:28.697Z,38.33
2019-03-28T03:46:36.392Z,40.70
2019-03-28T03:48:44.075Z,47.05
2019-03-28T03:50:53.006Z,40.92
2019-03-28T03:53:00.715Z,51.37
2019-03-28T03:55:09.006Z,46.28
2019-03-28T03:57:16.774Z,44.90
2019-03-28T03:59:25.569Z,48.50
2019-03-28T04:01:33.559Z,47.55
2019-03-28T04:03:42.100Z,47.60
2019-03-28T04:05:50.056Z,50.95
2019-03-28T04:07:57.793Z,47.83
2019-03-28T04:10:07.249Z,41.50
2019-03-28T04:12:16.762Z,44.33
2019-03-28T04:14:24.367Z,45.35
2019-03-28T04:16:32.142Z,51.68
2019-03-28T04:18:40.212Z,50.08
2019-03-28T04:20:48.060Z,52.85
2019-03-28T04:22:55.827Z,54.85
2019-03-28T04:25:04.126Z,54.93
2019-03-28T04:27:11.850Z,53.33
2019-03-28T04:29:19.692Z,54.73
2019-03-28T04:31:28.410Z,52.88
2019-03-28T04:33:36.132Z,53.58
2019-03-28T04:35:43.964Z,52.20
2019-03-28T04:37:51.727Z,53.85
2019-03-28T04:39:59.460Z,57.05
2019-03-28T04:42:07.365Z,54.10
2019-03-28T04:44:15.201Z,55.70
2019-03-28T04:46:23.105Z,56.90
2019-03-28T04:48:30.980Z,56.25
2019-03-28T04:50:38.894Z,55.65
2019-03-28T04:52:46.699Z,55.40
2019-03-28T04:54:55.353Z,61.20
2019-03-28T04:57:04.495Z,57.03
2019-03-28T04:59:12.402Z,59.27
2019-03-28T05:01:20.040Z,58.45
2019-03-28T05:03:27.971Z,55.60
2019-03-28T05:05:36.467Z,54.83
2019-03-28T05:07:44.202Z,55.43
2019-03-28T05:09:51.969Z,58.10
2019-03-28T05:11:59.872Z,58.92
2019-03-28T05:14:07.754Z,56.37
2019-03-28T05:16:15.519Z,59.05
2019-03-28T05:18:23.353Z,50.75
2019-03-28T05:20:31.159Z,59.38
2019-03-28T05:22:39.199Z,53.30
2019-03-28T05:24:46.999Z,49.70
2019-03-28T05:26:54.735Z,50.52
2019-03-28T05:29:02.492Z,53.13
2019-03-28T05:31:10.330Z,50.48
2019-03-28T05:33:18.147Z,52.53
2019-03-28T05:35:26.383Z,52.58
2019-03-28T05:37:34.350Z,48.33
2019-03-28T05:39:42.196Z,52.35
2019-03-28T05:41:50.169Z,60.12
2019-03-28T05:43:57.904Z,61.68
2019-03-28T05:46:05.634Z,57.05
2019-03-28T05:48:13.514Z,56.48
2019-03-28T05:50:22.498Z,57.70
2019-03-28T05:52:30.366Z,51.10
2019-03-28T05:54:38.129Z,55.73
2019-03-28T05:56:46.002Z,58.17
2019-03-28T05:58:54.248Z,59.27
2019-03-28T06:01:02.067Z,59.15
2019-03-28T06:03:09.814Z,57.17
2019-03-28T06:05:17.494Z,60.50
2019-03-28T06:07:25.516Z,52.78
2019-03-28T06:09:33.400Z,48.23
2019-03-28T06:11:41.082Z,50.88
2019-03-28T06:13:48.965Z,52.17
2019-03-28T06:15:56.728Z,64.00
2019-03-28T06:18:04.409Z,54.65
2019-03-28T06:20:12.927Z,54.67
2019-03-28T06:22:20.510Z,44.58
2019-03-28T06:24:28.191Z,53.80
2019-03-28T06:26:35.956Z,48.45
2019-03-28T06:28:43.708Z,55.10
2019-03-28T06:30:51.395Z,49.20
2019-03-28T06:32:59.153Z,57.78
2019-03-28T06:35:08.132Z,48.02
2019-03-28T06:37:16.111Z,70.85
2019-03-28T06:39:23.994Z,56.48
2019-03-28T06:41:31.756Z,57.38
2019-03-28T06:43:41.968Z,61.33
2019-03-28T06:45:48.851Z,56.53
2019-03-28T06:47:56.531Z,51.45
2019-03-28T06:50:08.381Z,55.43
2019-03-28T06:52:15.996Z,32.85
2019-03-28T06:54:24.374Z,35.90
2019-03-28T06:56:32.321Z,50.88
2019-03-28T06:58:40.093Z,43.75
2019-03-28T07:00:47.671Z,52.95
2019-03-28T07:02:55.354Z,50.03
2019-03-28T07:05:03.074Z,48.33
2019-03-28T07:07:10.817Z,37.58
2019-03-28T07:09:19.353Z,39.78
2019-03-28T07:11:27.200Z,46.68
2019-03-28T07:13:35.084Z,45.92
2019-03-28T07:15:42.728Z,49.30
2019-03-28T07:17:50.442Z,43.50
2019-03-28T07:19:58.251Z,54.98
2019-03-28T07:22:05.906Z,52.15
2019-03-28T07:24:13.732Z,54.90
2019-03-28T07:26:21.383Z,49.38
2019-03-28T07:28:29.134Z,46.42
2019-03-28T07:30:36.957Z,42.78
2019-03-28T07:32:44.765Z,42.08
2019-03-28T07:34:52.644Z,40.78
2019-03-28T07:37:00.421Z,48.08
2019-03-28T07:39:08.767Z,45.40
2019-03-28T07:41:16.715Z,48.52
2019-03-28T07:43:25.355Z,54.90
2019-03-28T07:45:34.579Z,44.93
2019-03-28T07:47:42.538Z,50.80
2019-03-28T07:49:51.408Z,50.95
2019-03-28T07:51:59.087Z,43.28
2019-03-28T07:54:06.897Z,54.80
2019-03-28T07:56:14.678Z,50.03
2019-03-28T07:58:22.458Z,34.55
2019-03-28T08:00:30.133Z,29.67
2019-03-28T08:02:38.305Z,32.33
2019-03-28T08:04:45.897Z,39.63
2019-03-28T08:06:53.466Z,28.85
2019-03-28T08:09:01.252Z,36.03
2019-03-28T08:11:11.586Z,32.58
2019-03-28T08:13:19.233Z,25.37
2019-03-28T08:15:27.075Z,42.43
2019-03-28T08:17:35.014Z,34.00
2019-03-28T08:19:42.587Z,28.60
2019-03-28T08:21:50.322Z,26.90
2019-03-28T08:23:58.076Z,23.05
2019-03-28T08:26:05.845Z,18.45
2019-03-28T08:28:13.633Z,32.73
2019-03-28T08:30:26.029Z,40.35
2019-03-28T08:32:34.656Z,39.23
2019-03-28T08:34:44.703Z,21.80
2019-03-28T08:36:53.923Z,30.25
2019-03-28T08:39:01.756Z,31.65
2019-03-28T08:41:11.112Z,15.13
2019-03-28T08:43:18.799Z,21.42
2019-03-28T08:45:26.575Z,20.23
2019-03-28T08:47:34.282Z,19.75
2019-03-28T08:49:41.958Z,24.57
2019-03-28T08:51:49.784Z,26.90
2019-03-28T08:53:58.552Z,24.07
2019-03-28T08:56:06.748Z,20.27
2019-03-28T08:58:14.416Z,22.73
2019-03-28T09:00:33.026Z,21.73
2019-03-28T09:02:32.598Z,21.90
2019-03-28T09:04:40.347Z,22.25
2019-03-28T09:06:48.154Z,20.68
2019-03-28T09:08:56.997Z,19.80
2019-03-28T09:11:05.116Z,16.95
2019-03-28T09:13:13.693Z,15.05
2019-03-28T09:15:21.583Z,10.20
2019-03-28T09:17:29.367Z,16.85
2019-03-28T09:19:38.999Z,14.85
2019-03-28T09:21:46.546Z,22.25
2019-03-28T09:23:54.257Z,27.65
2019-03-28T09:26:04.390Z,15.45
2019-03-28T09:28:11.207Z,17.35
2019-03-28T09:30:29.309Z,16.05
2019-03-28T09:32:37.576Z,16.23
2019-03-28T09:34:45.258Z,20.05
2019-03-28T09:36:54.186Z,18.62
2019-03-28T09:39:01.890Z,22.55
2019-03-28T09:41:11.079Z,18.57
2019-03-28T09:43:18.750Z,22.22
2019-03-28T09:45:26.873Z,18.07
2019-03-28T09:47:34.719Z,23.05
2019-03-28T09:49:42.370Z,13.40
2019-03-28T09:51:49.972Z,17.37
2019-03-28T09:53:57.774Z,15.78
2019-03-28T09:56:05.303Z,14.05
2019-03-28T09:58:13.092Z,10.55
2019-03-28T10:00:21.691Z,15.15
2019-03-28T10:02:29.416Z,27.22
2019-03-28T10:04:38.164Z,12.47
2019-03-28T10:06:45.912Z,18.52
2019-03-28T10:08:53.630Z,16.10
2019-03-28T10:11:01.410Z,10.95
2019-03-28T10:13:09.187Z,11.90
2019-03-28T10:15:18.404Z,17.25
2019-03-28T10:17:26.012Z,20.23
2019-03-28T10:19:33.767Z,22.77
2019-03-28T10:21:41.587Z,13.15
2019-03-28T10:23:49.467Z,15.48
2019-03-28T10:25:57.228Z,11.60
2019-03-28T10:28:05.084Z,12.30
2019-03-28T10:30:15.209Z,14.15
2019-03-28T10:32:22.892Z,13.88
2019-03-28T10:34:31.670Z,19.45
2019-03-28T10:36:39.512Z,6.30
2019-03-28T10:38:47.239Z,26.10
2019-03-28T10:40:54.980Z,9.35
2019-03-28T10:43:04.368Z,7.72
2019-03-28T10:45:12.202Z,9.30
2019-03-28T10:47:19.971Z,9.63
2019-03-28T10:49:28.744Z,7.90
2019-03-28T10:51:37.481Z,8.65
2019-03-28T10:53:45.161Z,5.92
2019-03-28T10:55:52.878Z,8.43
2019-03-28T10:58:00.541Z,11.05
2019-03-28T11:00:23.179Z,8.75
2019-03-28T11:02:19.487Z,7.08
2019-03-28T11:04:27.157Z,10.18
2019-03-28T11:06:34.938Z,10.30
2019-03-28T11:08:42.796Z,5.03
2019-03-28T11:10:50.741Z,24.27
2019-03-28T11:12:58.588Z,15.40
2019-03-28T11:15:07.705Z,14.93
2019-03-28T11:17:15.858Z,17.62
2019-03-28T11:19:23.529Z,17.98
2019-03-28T11:21:34.224Z,15.65
2019-03-28T11:23:41.656Z,15.78
2019-03-28T11:25:50.728Z,19.17
2019-03-28T11:27:58.502Z,25.77
2019-03-28T11:30:10.071Z,22.22
2019-03-28T11:32:18.684Z,13.65
2019-03-28T11:34:26.703Z,14.53
2019-03-28T11:36:34.345Z,13.03
2019-03-28T11:38:42.057Z,27.00
2019-03-28T11:40:49.770Z,15.80
2019-03-28T11:42:57.607Z,10.03
2019-03-28T11:45:09.937Z,7.58
2019-03-28T11:47:17.806Z,12.28
2019-03-28T11:49:25.515Z,10.00
2019-03-28T11:51:36.089Z,7.80
2019-03-28T11:53:42.694Z,11.12
2019-03-28T11:55:50.378Z,13.68
2019-03-28T11:57:58.156Z,11.33
2019-03-28T12:00:15.628Z,21.87
2019-03-28T12:02:25.309Z,11.55
2019-03-28T12:04:34.131Z,13.35
2019-03-28T12:06:41.831Z,10.05
2019-03-28T12:08:49.673Z,9.60
2019-03-28T12:10:57.345Z,6.58
2019-03-28T12:13:05.215Z,8.63
2019-03-28T12:15:14.184Z,7.75
2019-03-28T12:17:22.765Z,9.18
2019-03-28T12:19:30.454Z,7.25
2019-03-28T12:21:38.314Z,6.58
2019-03-28T12:23:45.957Z,7.80
2019-03-28T12:25:53.936Z,8.73
2019-03-28T12:28:01.867Z,7.20
2019-03-28T12:30:15.933Z,18.00
2019-03-28T12:32:23.383Z,11.78
2019-03-28T12:34:31.070Z,5.67
2019-03-28T12:36:38.908Z,12.88
2019-03-28T12:38:46.736Z,7.97
2019-03-28T12:40:54.419Z,5.03
2019-03-28T12:43:02.103Z,7.85
2019-03-28T12:45:11.818Z,8.15
2019-03-28T12:47:20.610Z,5.72
2019-03-28T12:49:28.302Z,8.08
2019-03-28T12:51:36.022Z,6.95
2019-03-28T12:53:43.804Z,8.15
2019-03-28T12:55:51.495Z,8.43
2019-03-28T12:57:59.273Z,8.28
2019-03-28T13:00:10.035Z,10.32
2019-03-28T13:02:28.642Z,11.40
2019-03-28T13:04:27.367Z,8.25
2019-03-28T13:06:35.321Z,7.53
2019-03-28T13:08:43.769Z,8.48
2019-03-28T13:10:51.513Z,9.15
2019-03-28T13:12:59.252Z,6.55
2019-03-28T13:15:08.753Z,9.65
2019-03-28T13:17:16.760Z,10.28
2019-03-28T13:19:24.909Z,8.78
2019-03-28T13:21:32.549Z,9.23
2019-03-28T13:23:40.354Z,13.00
2019-03-28T13:25:48.109Z,23.75
2019-03-28T13:27:55.809Z,10.28
2019-03-28T13:30:04.105Z,49.60
2019-03-28T13:32:11.935Z,24.52
2019-03-28T13:34:19.840Z,15.78
2019-03-28T13:36:27.639Z,25.15
2019-03-28T13:38:35.614Z,10.75
2019-03-28T13:40:43.362Z,17.25
2019-03-28T13:42:52.972Z,10.50
2019-03-28T13:45:00.576Z,10.75
2019-03-28T13:47:08.266Z,7.00
2019-03-28T13:49:15.887Z,7.42
2019-03-28T13:51:23.573Z,7.55
2019-03-28T13:53:39.382Z,7.83
2019-03-28T13:55:40.824Z,7.10
2019-03-28T13:57:48.569Z,28.98
2019-03-28T13:59:56.428Z,8.48
2019-03-28T14:02:06.736Z,9.73
2019-03-28T14:04:14.617Z,46.58
2019-03-28T14:06:22.485Z,106.35
2019-03-28T14:08:30.361Z,71.07
2019-03-28T14:10:38.069Z,42.95
2019-03-28T14:12:45.839Z,71.10
2019-03-28T14:14:53.625Z,53.45
2019-03-28T14:17:01.476Z,14.87
2019-03-28T14:19:09.264Z,8.90
2019-03-28T14:21:18.057Z,8.60
2019-03-28T14:23:25.820Z,7.80
2019-03-28T14:25:33.599Z,7.70
2019-03-28T14:27:41.455Z,7.72
2019-03-28T14:29:49.241Z,7.72
2019-03-28T14:31:59.807Z,9.43
2019-03-28T14:34:06.413Z,6.50
2019-03-28T14:36:14.092Z,7.08
2019-03-28T14:38:21.841Z,6.80
2019-03-28T14:40:29.697Z,7.45
2019-03-28T14:42:37.457Z,7.25
2019-03-28T14:44:45.137Z,7.10
2019-03-28T14:46:52.754Z,6.75
2019-03-28T14:49:00.580Z,6.50
2019-03-28T14:51:08.255Z,5.72
2019-03-28T14:53:17.156Z,6.17
2019-03-28T14:55:25.376Z,5.70
2019-03-28T14:57:34.085Z,6.50
2019-03-28T14:59:43.925Z,5.92
2019-03-28T15:01:51.603Z,5.83
2019-03-28T15:03:59.358Z,18.42
2019-03-28T15:06:07.088Z,11.28
2019-03-28T15:08:14.981Z,38.53
2019-03-28T15:10:22.580Z,12.58
2019-03-28T15:12:30.375Z,27.75
2019-03-28T15:14:38.073Z,41.60
2019-03-28T15:16:45.938Z,13.93
2019-03-28T15:18:53.764Z,16.00
2019-03-28T15:21:01.588Z,11.80
2019-03-28T15:23:09.929Z,12.60
2019-03-28T15:25:17.550Z,11.83
2019-03-28T15:27:25.244Z,9.80
2019-03-28T15:29:33.999Z,9.73
2019-03-28T15:31:41.785Z,7.85
2019-03-28T15:33:49.481Z,6.67
2019-03-28T15:35:57.141Z,10.08
2019-03-28T15:38:06.201Z,10.18
2019-03-28T15:40:14.319Z,5.50
2019-03-28T15:42:22.238Z,5.47
2019-03-28T15:44:29.950Z,6.17
2019-03-28T15:46:37.635Z,5.90
2019-03-28T15:48:45.376Z,5.83
2019-03-28T15:50:53.238Z,6.62
2019-03-28T15:53:00.912Z,5.80
2019-03-28T15:55:09.936Z,6.60
2019-03-28T15:57:18.991Z,6.47
2019-03-28T15:59:26.646Z,6.40
2019-03-28T16:01:34.521Z,7.58
2019-03-28T16:03:52.278Z,7.55
2019-03-28T16:05:58.265Z,7.92
2019-03-28T16:08:01.423Z,7.22
2019-03-28T16:10:14.723Z,7.97
2019-03-28T16:12:21.599Z,8.43
2019-03-28T16:14:29.357Z,10.32
2019-03-28T16:16:37.156Z,15.75
2019-03-28T16:18:44.850Z,10.48
2019-03-28T16:20:53.513Z,8.00
2019-03-28T16:23:01.329Z,7.83
2019-03-28T16:25:09.549Z,9.20
2019-03-28T16:27:17.208Z,8.73
2019-03-28T16:29:24.998Z,11.53
2019-03-28T16:31:32.688Z,16.12
2019-03-28T16:33:40.377Z,9.55
2019-03-28T16:35:48.098Z,17.73
2019-03-28T16:37:55.687Z,11.78
2019-03-28T16:40:04.126Z,8.80
2019-03-28T16:42:12.073Z,8.75
2019-03-28T16:44:19.761Z,8.80
2019-03-28T16:46:28.513Z,10.10
2019-03-28T16:48:36.403Z,10.45
2019-03-28T16:50:44.165Z,11.97
2019-03-28T16:52:51.857Z,11.70
2019-03-28T16:54:59.740Z,13.03
2019-03-28T16:57:07.536Z,26.23
2019-03-28T16:59:15.321Z,45.60
2019-03-28T17:01:23.013Z,39.60
2019-03-28T17:03:30.884Z,22.15
2019-03-28T17:05:39.911Z,22.52
2019-03-28T17:07:48.161Z,12.88
2019-03-28T17:09:56.751Z,14.45
2019-03-28T17:12:04.541Z,13.62
2019-03-28T17:14:12.377Z,16.20
2019-03-28T17:16:20.197Z,23.45
2019-03-28T17:18:27.918Z,24.00
2019-03-28T17:20:35.897Z,47.93
2019-03-28T17:22:43.552Z,64.07
2019-03-28T17:24:51.314Z,185.60
2019-03-28T17:27:00.213Z,98.03
2019-03-28T17:29:09.015Z,55.28
2019-03-28T17:31:16.677Z,135.60
2019-03-28T17:33:24.671Z,178.07
2019-03-28T17:35:32.393Z,131.30
2019-03-28T17:37:40.260Z,79.10
2019-03-28T17:39:48.186Z,57.30
2019-03-28T17:41:57.652Z,41.83
2019-03-28T17:44:06.593Z,48.02
2019-03-28T17:46:16.482Z,55.98
2019-03-28T17:48:24.207Z,55.48
2019-03-28T17:50:31.899Z,71.20
2019-03-28T17:52:39.631Z,48.25
2019-03-28T17:54:47.257Z,35.78
2019-03-28T17:56:56.120Z,33.23
2019-03-28T17:59:03.724Z,41.25
2019-03-28T18:01:11.715Z,48.63
2019-03-28T18:03:30.492Z,39.13
2019-03-28T18:05:29.034Z,39.60
2019-03-28T18:07:36.716Z,40.60
2019-03-28T18:09:44.460Z,45.15
2019-03-28T18:11:52.231Z,35.80
2019-03-28T18:14:00.216Z,34.88
2019-03-28T18:16:08.035Z,40.70
2019-03-28T18:18:15.864Z,58.00
2019-03-28T18:20:23.617Z,46.55
2019-03-28T18:22:31.264Z,43.35
2019-03-28T18:24:38.981Z,36.68
2019-03-28T18:26:46.733Z,37.10
2019-03-28T18:28:55.553Z,36.75
2019-03-28T18:31:03.246Z,37.38
2019-03-28T18:33:11.291Z,45.92
2019-03-28T18:35:19.131Z,47.00
2019-03-28T18:37:26.930Z,64.05
2019-03-28T18:39:34.627Z,56.68
2019-03-28T18:41:42.395Z,52.65
2019-03-28T18:43:50.347Z,37.98
2019-03-28T18:45:58.200Z,53.17
2019-03-28T18:48:08.887Z,62.05
2019-03-28T18:50:17.097Z,44.38
2019-03-28T18:52:24.782Z,40.98
2019-03-28T18:54:32.465Z,34.18
2019-03-28T18:56:40.315Z,50.95
2019-03-28T18:58:48.168Z,61.15
2019-03-28T19:00:56.009Z,47.73
2019-03-28T19:03:03.747Z,50.90
2019-03-28T19:05:19.524Z,50.80
2019-03-28T19:07:21.358Z,64.97
2019-03-28T19:09:29.146Z,102.80
2019-03-28T19:11:36.870Z,362.27
2019-03-28T19:13:44.690Z,309.92
2019-03-28T19:15:52.490Z,280.67
2019-03-28T19:18:00.221Z,215.75
2019-03-28T19:20:09.872Z,201.65
2019-03-28T19:22:17.702Z,151.60
2019-03-28T19:24:25.775Z,102.47
2019-03-28T19:26:33.465Z,75.05
2019-03-28T19:28:41.803Z,69.97
2019-03-28T19:30:49.525Z,65.12
2019-03-28T19:32:57.307Z,66.97
2019-03-28T19:35:08.233Z,80.32
2019-03-28T19:37:17.164Z,75.37
2019-03-28T19:39:30.938Z,79.82
2019-03-28T19:41:38.659Z,108.42
2019-03-28T19:43:46.901Z,115.57
2019-03-28T19:45:54.600Z,107.85
2019-03-28T19:48:02.566Z,76.15
2019-03-28T19:50:13.505Z,119.20
2019-03-28T19:52:21.198Z,48.52
2019-03-28T19:54:29.854Z,70.60
2019-03-28T19:56:37.455Z,103.00
2019-03-28T19:58:45.153Z,131.87
2019-03-28T20:00:53.041Z,136.05
2019-03-28T20:03:02.274Z,125.18
2019-03-28T20:05:10.689Z,130.82
2019-03-28T20:07:21.806Z,131.65
2019-03-28T20:09:27.998Z,133.57
2019-03-28T20:11:36.777Z,146.60
2019-03-28T20:13:44.779Z,120.72
2019-03-28T20:15:52.661Z,123.10
2019-03-28T20:18:00.431Z,116.82
2019-03-28T20:20:09.887Z,125.45
2019-03-28T20:22:17.636Z,126.67
2019-03-28T20:24:25.239Z,120.72
2019-03-28T20:26:33.040Z,122.15
2019-03-28T20:28:40.740Z,119.00
2019-03-28T20:30:48.508Z,118.05
2019-03-28T20:32:57.094Z,117.67
2019-03-28T20:35:05.769Z,117.22
2019-03-28T20:37:14.725Z,119.10
2019-03-28T20:39:22.817Z,120.53
2019-03-28T20:41:30.513Z,115.80
2019-03-28T20:43:38.223Z,120.50
2019-03-28T20:45:46.166Z,123.53
2019-03-28T20:47:54.002Z,126.55
2019-03-28T20:50:02.970Z,129.07
2019-03-28T20:52:10.765Z,133.95
2019-03-28T20:54:19.412Z,133.27
2019-03-28T20:56:27.185Z,139.37
2019-03-28T20:58:34.926Z,138.97
2019-03-28T21:00:45.635Z,132.95
2019-03-28T21:02:53.582Z,132.57
2019-03-28T21:05:01.415Z,121.92
2019-03-28T21:07:09.157Z,130.00
2019-03-28T21:09:16.934Z,136.60
2019-03-28T21:11:25.732Z,137.37
2019-03-28T21:13:33.626Z,145.57
2019-03-28T21:15:41.394Z,129.05
2019-03-28T21:17:49.243Z,130.40
2019-03-28T21:19:57.045Z,119.60
2019-03-28T21:22:05.959Z,108.17
2019-03-28T21:24:13.929Z,113.32
2019-03-28T21:26:21.768Z,113.32
2019-03-28T21:28:29.597Z,109.50
2019-03-28T21:30:47.189Z,104.63
2019-03-28T21:32:55.143Z,107.40
2019-03-28T21:34:59.391Z,107.60
2019-03-28T21:37:07.140Z,112.55
2019-03-28T21:39:14.984Z,120.92
2019-03-28T21:41:22.592Z,126.62
2019-03-28T21:43:30.932Z,138.77
2019-03-28T21:45:39.059Z,113.52
2019-03-28T21:47:46.928Z,117.15
2019-03-28T21:49:54.665Z,119.90
2019-03-28T21:52:02.534Z,120.05
2019-03-28T21:54:10.291Z,124.18
2019-03-28T21:56:18.029Z,125.50
2019-03-28T21:58:25.924Z,150.05
2019-03-28T22:00:33.673Z,139.40
2019-03-28T22:02:41.572Z,139.82
2019-03-28T22:04:49.342Z,133.32
2019-03-28T22:06:57.448Z,130.52
2019-03-28T22:09:07.378Z,154.53
2019-03-28T22:11:16.850Z,165.82
2019-03-28T22:13:24.837Z,168.37
2019-03-28T22:15:33.717Z,171.30
2019-03-28T22:17:42.093Z,182.45
2019-03-28T22:19:51.658Z,182.68
2019-03-28T22:21:59.773Z,202.28
2019-03-28T22:24:07.627Z,194.72
2019-03-28T22:26:15.457Z,186.90
2019-03-28T22:28:23.198Z,201.70
2019-03-28T22:30:31.028Z,219.35
2019-03-28T22:32:39.102Z,120.40
2019-03-28T22:34:46.852Z,138.72
2019-03-28T22:36:57.463Z,136.20
2019-03-28T22:39:07.217Z,112.83
2019-03-28T22:41:15.116Z,108.57
2019-03-28T22:43:22.716Z,112.35
2019-03-28T22:45:30.548Z,121.20
2019-03-28T22:47:38.428Z,122.98
2019-03-28T22:49:46.238Z,119.87
2019-03-28T22:51:54.150Z,130.03
2019-03-28T22:54:02.333Z,115.75
2019-03-28T22:56:10.261Z,122.35
2019-03-28T22:58:17.841Z,120.02
2019-03-28T23:00:41.037Z,127.17
2019-03-28T23:02:50.592Z,121.85
2019-03-28T23:04:58.364Z,110.12
2019-03-28T23:07:11.132Z,114.57
2019-03-28T23:09:15.790Z,115.32
2019-03-28T23:11:23.929Z,112.68
2019-03-28T23:13:31.790Z,109.52
2019-03-28T23:15:39.790Z,117.33
2019-03-28T23:17:47.559Z,116.55
2019-03-28T23:19:55.399Z,121.13
2019-03-28T23:22:03.164Z,124.20
2019-03-28T23:24:10.930Z,118.72
2019-03-28T23:26:19.059Z,121.65
2019-03-28T23:28:26.851Z,100.62
2019-03-28T23:30:34.768Z,110.28
2019-03-28T23:32:43.045Z,106.07
2019-03-28T23:34:51.028Z,81.15
2019-03-28T23:36:59.751Z,74.03
2019-03-28T23:39:08.650Z,70.15
2019-03-28T23:41:16.404Z,107.00
2019-03-28T23:43:24.107Z,123.35
2019-03-28T23:45:31.919Z,137.52
2019-03-28T23:47:41.253Z,143.35
2019-03-28T23:49:48.845Z,130.43
2019-03-28T23:51:56.760Z,123.15
2019-03-28T23:54:04.525Z,97.95
2019-03-28T23:56:12.289Z,130.43
2019-03-28T23:58:20.936Z,117.47
